• Join FlightAware (Why Join?)
  • Login
  • US Flag 
01:07PM EST


 

Airport Tracker/Info


-or-


 

Live Flight TrackerFlight Track Log ✈ UAL4434 ✈ 06-Jan-2014 ✈ KMCI - KEWR

Flight Track Log - Related Links

Times and Time Zones

All times are in EST time to prevent confusion due to time zone crossing. See the UAL4434 flight status page for this flight to view local times or setup timezone preferences in your user account.

Time Position Orientation Groundspeed Altitude Reporting Facility
EST Latitude Longitude Course Direction KTS MPH feet Rate Location/Type
07:48AM 39.3167 -94.7000 47° Northeast 171 197 1,700  Level Kansas City TRACON
07:49AM 39.3425 -94.6644 47° Northeast 174 200 4,100 2,400 Climbing Kansas City Center
07:50AM 39.3653 -94.6053 64° Northeast 208 239 6,400 1,980 Climbing Kansas City Center
07:51AM 39.3172 -94.5208 126° Southeast 266 306 8,200 1,800 Climbing Kansas City Center
07:52AM 39.2692 -94.4389 127° Southeast 298 343 10,200 1,620 Climbing Kansas City Center
07:53AM 39.2167 -94.3461 126° Southeast 330 380 11,500 1,200 Climbing Kansas City Center
07:54AM 39.1569 -94.2392 126° Southeast 380 437 12,700 1,500 Climbing Kansas City Center
07:55AM 39.0944 -94.1019 120° Southeast 407 468 14,600 1,740 Climbing Kansas City Center
07:56AM 39.0847 -93.9694 95° East 391 450 16,300 1,680 Climbing Kansas City Center
07:57AM 39.0767 -93.8358 94° East 390 449 18,000 1,500 Climbing Kansas City Center
07:58AM 39.0664 -93.6772 95° East 397 457 19,300 1,380 Climbing Kansas City Center
07:59AM 39.0564 -93.5403 95° East 402 463 20,800 1,560 Climbing Kansas City Center
08:00AM 39.0472 -93.3803 94° East 410 472 22,600 1,620 Climbing Kansas City Center
08:01AM 39.0372 -93.2350 95° East 411 473 24,200 1,500 Climbing Kansas City Center
08:02AM 39.0267 -93.0889 95° East 412 474 25,700 1,380 Climbing Kansas City Center
08:03AM 39.0161 -92.9433 95° East 411 473 27,000 1,440 Climbing Kansas City Center
08:04AM 38.9928 -92.8008 102° East 411 473 28,600 1,440 Climbing Kansas City Center
08:05AM 38.9500 -92.6664 112° Southeast 408 470 30,000 1,020 Climbing Kansas City Center
08:06AM 38.9072 -92.5281 112° Southeast 410 472 30,800 780 Climbing Kansas City Center
08:07AM 38.8622 -92.3847 112° Southeast 417 480 31,600 780 Climbing Kansas City Center
08:08AM 38.8136 -92.2303 112° Southeast 445 512 32,400 780 Climbing Kansas City Center
08:09AM 38.7439 -92.0967 124° Southeast 448 516 33,200 720 Climbing Kansas City Center
08:10AM 38.6692 -91.9642 126° Southeast 453 521 34,000 720 Climbing Kansas City Center
08:11AM 38.5933 -91.8303 126° Southeast 457 526 34,700 480 Climbing Kansas City Center
08:12AM 38.5178 -91.6961 126° Southeast 459 528 35,000 120 Climbing Kansas City Center
08:13AM 38.4400 -91.5550 125° Southeast 472 543 35,000  Level Kansas City Center
08:14AM 38.4028 -91.3647 104° East 518 596 35,000  Level Kansas City Center
08:15AM 38.3806 -91.1797 99° East 528 608 35,000  Level Kansas City Center
08:16AM 38.3597 -90.9936 98° East 533 613 35,000  Level Kansas City Center
08:17AM 38.3378 -90.8042 98° East 540 621 35,000  Level Kansas City Center
08:18AM 38.3150 -90.6158 99° East 544 626 35,000  Level Kansas City Center
08:19AM 38.2911 -90.4281 99° East 544 626 35,000  Level Kansas City Center
08:20AM 38.2672 -90.2439 99° East 540 621 35,000  Level Kansas City Center
08:21AM 38.2431 -90.0544 99° East 546 628 35,000  Level Kansas City Center
08:22AM 38.2186 -89.8642 99° East 550 633 35,000  Level Kansas City Center
08:24AM 38.1942 -89.6728 99° East 551 634 35,000  Level Kansas City Center
08:24AM 38.1692 -89.4833 99° East 548 631 35,000  Level Kansas City Center
08:26AM 38.1381 -89.2544 100° East 551 634 35,000  Level Kansas City Center
08:27AM 38.1125 -89.0650 100° East 547 629 35,000  Level Kansas City Center
08:28AM 38.0858 -88.8772 100° East 544 626 35,000  Level Kansas City Center
08:29AM 38.0606 -88.6911 100° East 542 624 35,000  Level Kansas City Center
08:30AM 38.0322 -88.5019 101° East 543 625 35,000  Level Kansas City Center
08:31AM 38.0025 -88.2800 100° East 539 620 35,000  Level Indianapolis Center
08:32AM 37.9756 -88.0928 100° East 538 619 35,000  Level Indianapolis Center
08:33AM 37.9481 -87.9017 100° East 547 629 35,000  Level Indianapolis Center
08:34AM 37.9747 -87.7069 80° East 569 655 35,000  Level Indianapolis Center
08:35AM 38.0722 -87.5472 52° Northeast 571 657 35,000  Level Indianapolis Center
08:36AM 38.1758 -87.3917 50° Northeast 570 656 35,000  Level Indianapolis Center
08:37AM 38.2806 -87.2325 50° Northeast 576 663 35,000  Level Indianapolis Center
08:38AM 38.3758 -87.0858 50° Northeast 573 659 35,000  Level Indianapolis Center
08:39AM 38.4942 -86.9089 49° Northeast 570 656 35,000  Level Indianapolis Center
08:40AM 38.5975 -86.7508 50° Northeast 573 659 35,000  Level Indianapolis Center
08:41AM 38.7014 -86.5919 50° Northeast 574 661 35,000  Level Indianapolis Center
08:42AM 38.8033 -86.4328 51° Northeast 574 661 35,000  Level Indianapolis Center
08:43AM 38.9025 -86.2789 50° Northeast 572 658 35,000  Level Indianapolis Center
08:44AM 39.0025 -86.1219 51° Northeast 573 659 35,000  Level Indianapolis Center
08:45AM 39.1022 -85.9650 51° Northeast 572 658 35,000  Level Indianapolis Center
08:46AM 39.2019 -85.8086 51° Northeast 573 659 35,000  Level Indianapolis Center
08:47AM 39.3014 -85.6517 51° Northeast 573 659 35,000  Level Indianapolis Center
08:48AM 39.4200 -85.4622 51° Northeast 572 658 35,000  Level Indianapolis Center
08:49AM 39.5200 -85.3028 51° Northeast 575 662 35,000  Level Indianapolis Center
08:50AM 39.6192 -85.1453 51° Northeast 571 657 35,000  Level Indianapolis Center
08:51AM 39.7175 -84.9850 51° Northeast 571 657 35,000  Level Indianapolis Center
08:52AM 39.8156 -84.8253 51° Northeast 570 656 35,000  Level Indianapolis Center
08:53AM 39.9136 -84.6628 52° Northeast 574 661 35,000  Level Indianapolis Center
08:54AM 40.0131 -84.5008 51° Northeast 576 663 35,000  Level Indianapolis Center
08:55AM 40.1311 -84.3069 51° Northeast 573 659 35,000  Level Indianapolis Center
08:56AM 40.2278 -84.1442 52° Northeast 572 658 35,000  Level Indianapolis Center
08:57AM 40.3069 -84.0008 54° Northeast 574 661 35,000  Level Indianapolis Center
08:58AM 40.4047 -83.7847 59° Northeast 572 658 35,000  Level Indianapolis Center
08:59AM 40.4878 -83.6039 59° Northeast 574 661 35,000  Level Indianapolis Center
09:00AM 40.5700 -83.4236 59° Northeast 574 661 35,000  Level Indianapolis Center
09:01AM 40.6519 -83.2431 59° Northeast 573 659 35,000  Level Indianapolis Center
09:02AM 40.7375 -83.0542 59° Northeast 577 664 35,000  Level Indianapolis Center
09:03AM 40.8186 -82.8717 60° Northeast 574 661 35,000  Level Indianapolis Center
09:04AM 40.8992 -82.6839 60° Northeast 579 666 35,000  Level Indianapolis Center
09:05AM 40.9319 -82.5878 66° East 579 666 35,000  Level Cleveland Center
09:06AM 40.9767 -82.3825 74° East 576 663 35,000  Level Cleveland Center
09:07AM 41.0242 -82.1803 73° East 575 662 35,000  Level Cleveland Center
09:08AM 41.0711 -81.9769 73° East 576 663 35,000  Level Cleveland Center
09:09AM 41.1178 -81.7750 73° East 577 664 35,000  Level Cleveland Center
09:10AM 41.1603 -81.5794 74° East 573 659 35,000  Level Cleveland Center
09:11AM 41.2125 -81.3447 73° East 570 656 35,000  Level Cleveland Center
09:12AM 41.2556 -81.1422 74° East 568 654 35,000  Level Cleveland Center
09:13AM 41.2992 -80.9386 74° East 568 654 35,000  Level Cleveland Center
09:14AM 41.3428 -80.7353 74° East 567 652 35,000  Level Cleveland Center
09:15AM 41.3847 -80.5339 74° East 562 647 35,000  Level Cleveland Center
09:16AM 41.4278 -80.3297 74° East 563 648 35,000  Level Cleveland Center
09:17AM 41.4694 -80.1294 74° East 562 647 35,000  Level Cleveland Center
09:18AM 41.5092 -79.9392 74° East 566 651 35,000  Level Cleveland Center
09:19AM 41.5508 -79.7356 75° East 569 655 35,000  Level Cleveland Center
09:20AM 41.5997 -79.4908 75° East 570 656 35,000  Level Cleveland Center
09:21AM 41.6294 -79.2842 79° East 565 650 35,000  Level Cleveland Center
09:22AM 41.6128 -79.0878 96° East 541 623 35,000  Level Cleveland Center
09:23AM 41.5908 -78.8919 98° East 533 613 35,000  Level Cleveland Center
09:24AM 41.5694 -78.6944 98° East 535 616 35,000 -60 Level Cleveland Center
09:25AM 41.5467 -78.4972 99° East 535 616 34,900 -540 Descending Cleveland Center
09:26AM 41.5242 -78.3022 99° East 531 611 34,000 -960 Descending Cleveland Center
09:27AM 41.5028 -78.1097 98° East 525 604 33,000 -1,080 Descending Cleveland Center
09:28AM 41.4792 -77.9175 99° East 525 604 31,900 -1,020 Descending Cleveland Center
09:29AM 41.4578 -77.7278 98° East 519 597 31,000 -480 Descending Cleveland Center
09:30AM 41.4336 -77.5392 100° East 517 595 31,000  Level Cleveland Center
09:31AM 41.4108 -77.3508 99° East 515 593 31,000  Level Cleveland Center
09:32AM 41.3875 -77.1647 99° East 514 592 31,000  Level Cleveland Center
09:33AM 41.3642 -76.9797 99° East 510 587 31,000 -300 Level Cleveland Center
09:34AM 41.3303 -76.7594 102° East 509 586 30,400 -1,680 Descending Cleveland Center
09:35AM 41.2881 -76.5886 108° East 490 564 27,700 -2,820 Descending Cleveland Center
09:36AM 41.2425 -76.4186 110° East 491 565 24,700 -2,940 Descending Cleveland Center
09:37AM 41.1986 -76.2589 110° East 463 533 21,800 -2,880 Descending Cleveland Center
09:39AM 41.1561 -76.0978 109° East 448 516 18,700 -2,700 Descending New York Center
09:40AM 41.1167 -75.9542 110° East 424 488 16,200 -2,100 Descending New York Center
09:41AM 41.0753 -75.8025 110° East 407 468 14,500 -1,320 Descending New York Center
09:42AM 41.0392 -75.6733 110° East 390 449 13,600 -780 Descending New York Center
09:43AM 41.0028 -75.5442 110° East 384 442 13,000 -780 Descending New York Center
09:44AM 40.9733 -75.4431 111° Southeast 351 404 12,100 -1,200 Descending New York Center
09:45AM 40.9422 -75.3339 111° Southeast 317 365 10,600 -1,560 Descending New York Center
09:46AM 40.9114 -75.2164 109° East 312 359 9,000 -1,440 Descending New York Center
09:47AM 40.8817 -75.1131 111° Southeast 307 353 7,800 -1,020 Descending New York Center
09:48AM 40.8522 -75.0122 111° Southeast 296 341 7,000 -540 Descending New York Center
09:49AM 40.8306 -74.9178 107° East 296 341 6,800 -540 Descending New York Center
09:50AM 40.8742 -74.7969 64° Northeast 296 341 6,000 -420 Descending New York Center
09:51AM 40.9175 -74.6897 62° Northeast 317 365 6,000  Level New York Center
09:52AM 40.9481 -74.5786 70° East 317 365 6,000 -240 Level New York Center
09:53AM 40.9536 -74.4747 86° East 312 359 5,600 -540 Descending New York Center
09:54AM 40.9594 -74.3486 86° East 307 353 5,000 -600 Descending New York Center
09:54AM 40.9500 -74.3000 104° East 293 337 4,700 -720 Descending New York TRACON
09:55AM 40.9167 -74.2167 118° Southeast 276 318 4,000 -540 Descending New York TRACON
09:56AM 40.8833 -74.1333 118° Southeast 275 316 3,700 -660 Descending New York TRACON
09:57AM 40.8333 -74.0833 143° Southeast 209 241 2,700 -900 Descending New York TRACON
09:58AM 40.8000 -74.1000 201° Southwest 168 193 2,100 -840 Descending New York TRACON
09:59AM 40.7500 -74.1333 207° Southwest 135 155 1,200 -840 Descending New York TRACON
10:00AM 40.7167 -74.1500 201° Southwest 141 162 500 -720 Descending New York TRACON